Time;durP1;ratioP1;P1;durP2;ratioP2;P2;SDS_P1;SDS_P2;PMS_P1;PMS_P2;Temp;Humidity;BMP_temperature;BMP_pressure;BME280_temperature;BME280_humidity;BME280_pressure;Samples;Min_cycle;Max_cycle;Signal;HPM_P1;HPM_P2
2021/11/18 00:01:25;;;;;;;9.13;7.70;;;8.90;99.90;;;;;;5097911;28;20425;-58
2021/11/18 00:03:51;;;;;;;9.50;8.60;;;9.00;99.90;;;;;;5097992;28;20457;-60
2021/11/18 00:06:17;;;;;;;8.73;7.93;;;9.00;99.90;;;;;;5097323;28;20473;-60
2021/11/18 00:08:44;;;;;;;10.67;8.80;;;9.00;99.90;;;;;;5097834;28;20482;-60
2021/11/18 00:11:11;;;;;;;8.90;8.00;;;9.10;99.90;;;;;;5086274;28;20200;-60
2021/11/18 00:13:42;;;;;;;7.70;7.00;;;9.10;99.90;;;;;;5077130;28;20470;-60
2021/11/18 00:16:08;;;;;;;9.90;9.00;;;9.10;99.90;;;;;;5076994;28;20487;-60
2021/11/18 00:18:36;;;;;;;9.57;8.57;;;9.10;99.90;;;;;;5076724;28;20431;-61
2021/11/18 00:21:12;;;;;;;9.03;8.20;;;9.00;99.90;;;;;;5085119;23;20200;-57
2021/11/18 00:23:40;;;;;;;9.90;8.90;;;8.90;99.90;;;;;;5013231;28;20430;-53
2021/11/18 00:26:07;;;;;;;9.17;8.30;;;9.00;99.90;;;;;;5010095;28;20412;-56
2021/11/18 00:28:34;;;;;;;9.57;8.57;;;9.10;99.90;;;;;;5019852;28;20488;-58
2021/11/18 00:31:00;;;;;;;8.80;7.97;;;9.10;99.90;;;;;;5029629;28;20582;-54
2021/11/18 00:33:27;;;;;;;8.67;7.80;;;9.20;99.90;;;;;;5029833;28;20550;-53
2021/11/18 00:35:53;;;;;;;9.30;7.80;;;9.10;99.90;;;;;;5029474;28;20390;-58
2021/11/18 00:38:20;;;;;;;8.90;7.40;;;9.00;99.90;;;;;;5029413;28;20407;-55
2021/11/18 00:40:48;;;;;;;8.57;7.77;;;9.00;99.90;;;;;;5019100;28;20193;-54
2021/11/18 00:43:15;;;;;;;9.70;8.03;;;9.00;99.90;;;;;;5010549;28;20433;-55
2021/11/18 00:45:42;;;;;;;7.73;7.03;;;8.90;99.90;;;;;;5010345;28;20403;-57
2021/11/18 00:48:09;;;;;;;6.60;5.77;;;9.00;99.90;;;;;;5010122;28;21009;-54
2021/11/18 00:50:42;;;;;;;8.27;7.47;;;9.10;99.90;;;;;;5010125;28;20417;-55
2021/11/18 00:53:08;;;;;;;7.73;6.83;;;9.00;99.90;;;;;;5027174;28;20461;-54
2021/11/18 00:55:34;;;;;;;7.60;6.83;;;9.10;99.90;;;;;;5029321;28;20459;-54
2021/11/18 00:58:00;;;;;;;8.47;7.67;;;9.10;99.90;;;;;;5029476;28;20544;-58
2021/11/18 01:00:30;;;;;;;8.87;8.07;;;9.10;99.90;;;;;;5029299;28;20496;-58
2021/11/18 01:02:58;;;;;;;7.77;7.03;;;9.00;99.90;;;;;;5029132;28;20208;-54
2021/11/18 01:05:28;;;;;;;8.60;7.70;;;9.00;99.90;;;;;;5015913;28;20969;-55
2021/11/18 01:07:55;;;;;;;9.03;7.33;;;9.00;99.90;;;;;;5015980;28;20533;-53
2021/11/18 01:10:22;;;;;;;9.03;7.33;;;9.00;99.90;;;;;;5015949;28;20493;-55
2021/11/18 01:12:48;;;;;;;7.47;6.77;;;9.10;99.90;;;;;;5015829;28;20453;-55
2021/11/18 01:15:18;;;;;;;7.00;6.40;;;9.20;99.90;;;;;;5015792;28;20406;-57
2021/11/18 01:17:45;;;;;;;7.63;6.90;;;9.20;99.90;;;;;;5015657;28;20208;-54
2021/11/18 01:20:12;;;;;;;7.00;6.30;;;9.30;99.90;;;;;;5015734;28;20927;-52
2021/11/18 01:22:38;;;;;;;8.00;7.23;;;9.30;99.90;;;;;;5015105;28;20465;-54
2021/11/18 01:25:05;;;;;;;6.70;6.00;;;9.30;99.90;;;;;;5015875;28;20415;-56
2021/11/18 01:27:30;;;;;;;7.33;6.73;;;9.20;99.90;;;;;;4997970;28;20787;-57
2021/11/18 01:29:56;;;;;;;7.27;6.57;;;9.30;99.90;;;;;;5016255;28;20412;-55
2021/11/18 01:32:22;;;;;;;7.20;6.50;;;9.20;99.90;;;;;;5015625;28;20248;-54
2021/11/18 01:34:47;;;;;;;8.10;7.30;;;9.30;99.90;;;;;;5015498;28;20165;-52
2021/11/18 01:37:13;;;;;;;8.17;7.20;;;9.30;99.90;;;;;;5015546;28;20562;-50
2021/11/18 01:39:39;;;;;;;7.47;6.67;;;9.30;99.90;;;;;;5015775;28;20224;-53
2021/11/18 01:42:05;;;;;;;7.17;6.13;;;9.30;99.90;;;;;;5015498;28;20906;-56
2021/11/18 01:44:37;;;;;;;7.50;6.63;;;9.20;99.90;;;;;;5016706;28;20184;-55
2021/11/18 01:47:08;;;;;;;7.80;7.10;;;9.20;99.90;;;;;;4998240;28;20413;-56
2021/11/18 01:49:34;;;;;;;7.10;6.40;;;9.20;99.90;;;;;;5015846;28;20395;-55
2021/11/18 01:52:03;;;;;;;8.17;7.37;;;9.20;99.90;;;;;;5015425;28;20466;-56
2021/11/18 01:54:32;;;;;;;7.43;6.67;;;9.20;99.90;;;;;;5015804;28;20457;-55
2021/11/18 01:57:00;;;;;;;7.67;6.97;;;9.20;99.90;;;;;;5016261;28;20838;-55
2021/11/18 01:59:46;;;;;;;8.43;7.50;;;9.30;99.90;;;;;;5015496;28;20402;-52
2021/11/18 02:02:14;;;;;;;7.07;6.37;;;9.40;99.90;;;;;;5015894;28;20422;-55
2021/11/18 02:04:50;;;;;;;5.97;5.43;;;9.40;99.90;;;;;;5015234;28;20447;-53
2021/11/18 02:07:16;;;;;;;10.17;8.27;;;9.30;99.90;;;;;;4997620;28;20941;-57
2021/11/18 02:09:46;;;;;;;8.10;7.30;;;9.20;99.90;;;;;;5004463;28;20429;-55
2021/11/18 02:12:19;;;;;;;8.00;7.30;;;9.20;99.90;;;;;;4995482;28;20561;-55
2021/11/18 02:14:45;;;;;;;8.47;7.67;;;9.20;99.90;;;;;;4995443;28;20392;-53
2021/11/18 02:17:14;;;;;;;8.50;7.70;;;9.10;99.90;;;;;;5003792;28;20422;-56
2021/11/18 02:19:44;;;;;;;7.70;7.00;;;9.00;99.90;;;;;;5014796;28;20413;-54
2021/11/18 02:22:11;;;;;;;8.53;7.70;;;8.90;99.90;;;;;;5014189;28;20544;-56
2021/11/18 02:24:42;;;;;;;7.50;6.80;;;8.90;99.90;;;;;;5014668;28;20463;-57
2021/11/18 02:27:14;;;;;;;9.23;8.43;;;8.90;99.90;;;;;;5014932;28;20460;-56
2021/11/18 02:29:43;;;;;;;7.30;6.57;;;8.80;99.90;;;;;;5014816;28;20409;-57
2021/11/18 02:32:11;;;;;;;8.70;7.80;;;8.80;99.90;;;;;;5014713;28;20462;-52
2021/11/18 02:34:45;;;;;;;7.00;6.30;;;8.90;99.90;;;;;;5014298;28;20453;-52
2021/11/18 02:37:11;;;;;;;6.90;6.20;;;9.00;99.90;;;;;;5014368;28;20464;-56
2021/11/18 02:39:37;;;;;;;7.27;6.57;;;9.00;99.90;;;;;;5014466;28;20433;-53
2021/11/18 02:42:05;;;;;;;7.47;6.77;;;9.10;99.90;;;;;;5014139;28;20614;-53
2021/11/18 02:44:32;;;;;;;9.63;7.73;;;9.10;99.90;;;;;;5014365;28;20416;-55
2021/11/18 02:46:58;;;;;;;7.80;7.00;;;9.10;99.90;;;;;;5014396;28;20411;-53
2021/11/18 02:49:24;;;;;;;6.53;5.93;;;9.20;99.90;;;;;;5013969;28;20814;-57
2021/11/18 02:51:49;;;;;;;11.03;6.00;;;9.20;99.90;;;;;;5013731;28;20434;-55
2021/11/18 02:54:15;;;;;;;7.80;7.10;;;9.10;99.90;;;;;;5014403;28;20573;-56
2021/11/18 02:56:41;;;;;;;8.43;7.60;;;9.00;99.90;;;;;;5014316;28;20166;-55
2021/11/18 02:59:07;;;;;;;6.83;6.17;;;8.90;99.90;;;;;;5013991;28;20176;-52
2021/11/18 03:01:41;;;;;;;7.73;6.83;;;8.90;99.90;;;;;;5013781;28;20272;-56
2021/11/18 03:04:07;;;;;;;8.57;7.73;;;8.90;99.90;;;;;;5014067;28;20398;-57
2021/11/18 03:06:33;;;;;;;7.93;7.17;;;8.90;99.90;;;;;;5013067;28;20972;-57
2021/11/18 03:08:58;;;;;;;7.53;6.83;;;8.80;99.90;;;;;;5012840;28;20783;-53
2021/11/18 03:11:26;;;;;;;8.27;6.60;;;8.90;99.90;;;;;;5013953;28;20430;-56
2021/11/18 03:13:53;;;;;;;8.30;6.80;;;9.00;99.90;;;;;;5013466;28;20336;-55
2021/11/18 03:16:19;;;;;;;8.63;7.73;;;8.90;99.90;;;;;;4998570;28;20422;-57
2021/11/18 03:18:45;;;;;;;8.60;7.73;;;8.90;99.90;;;;;;4993993;28;20417;-58
2021/11/18 03:21:14;;;;;;;10.50;8.03;;;8.90;99.90;;;;;;5002096;28;20554;-56
2021/11/18 03:23:41;;;;;;;10.27;7.53;;;8.80;99.90;;;;;;4995648;28;20171;-53
2021/11/18 03:26:08;;;;;;;6.93;6.23;;;8.80;99.90;;;;;;5013531;28;20413;-56
2021/11/18 03:28:34;;;;;;;8.10;7.30;;;8.90;99.90;;;;;;5013663;28;20497;-54
2021/11/18 03:31:02;;;;;;;8.97;7.17;;;8.90;99.90;;;;;;5013443;28;20413;-55
2021/11/18 03:33:44;;;;;;;8.13;7.33;;;8.90;99.90;;;;;;5013384;28;20460;-57
2021/11/18 03:36:11;;;;;;;8.53;7.27;;;8.90;99.90;;;;;;5013260;28;20388;-55
2021/11/18 03:38:38;;;;;;;11.43;8.20;;;9.00;99.90;;;;;;5013073;28;20407;-56
2021/11/18 03:41:05;;;;;;;8.53;7.73;;;9.00;99.90;;;;;;5013495;28;20439;-56
2021/11/18 03:43:33;;;;;;;7.37;6.40;;;9.00;99.90;;;;;;5013333;28;20751;-53
2021/11/18 03:46:00;;;;;;;7.23;6.53;;;9.00;99.90;;;;;;5013581;28;20934;-54
2021/11/18 03:48:29;;;;;;;9.00;6.87;;;8.90;99.90;;;;;;5014935;28;20402;-56
2021/11/18 03:50:56;;;;;;;8.43;7.57;;;8.80;99.90;;;;;;5013271;28;20868;-56
2021/11/18 03:53:23;;;;;;;8.70;6.97;;;8.80;99.90;;;;;;4974019;28;20463;-56
2021/11/18 03:55:48;;;;;;;8.90;7.20;;;8.80;99.90;;;;;;4974184;28;20439;-56
2021/11/18 03:58:14;;;;;;;8.73;7.83;;;8.80;99.90;;;;;;4974624;28;20416;-54
2021/11/18 04:00:40;;;;;;;7.27;6.57;;;8.90;99.90;;;;;;4974202;28;20251;-52
2021/11/18 04:03:08;;;;;;;8.60;7.70;;;9.00;99.90;;;;;;4973981;28;20200;-57
2021/11/18 04:05:35;;;;;;;8.10;7.03;;;9.00;99.90;;;;;;4989392;28;20425;-54
2021/11/18 04:08:01;;;;;;;9.63;7.83;;;8.90;99.90;;;;;;4993125;28;20415;-53
2021/11/18 04:10:29;;;;;;;8.90;7.40;;;8.90;99.90;;;;;;5006900;28;20504;-55
2021/11/18 04:12:55;;;;;;;8.27;7.53;;;8.90;99.90;;;;;;5012806;28;20489;-56
2021/11/18 04:15:24;;;;;;;8.77;7.87;;;8.80;99.90;;;;;;5012979;28;20540;-55
2021/11/18 04:17:49;;;;;;;9.07;8.17;;;8.70;99.90;;;;;;5013141;28;20414;-56
2021/11/18 04:20:16;;;;;;;8.27;7.47;;;8.80;99.90;;;;;;5012692;28;20774;-56
2021/11/18 04:22:43;;;;;;;8.20;7.37;;;8.90;99.90;;;;;;5012440;28;20246;-52
2021/11/18 04:25:10;;;;;;;7.53;6.70;;;8.80;99.90;;;;;;5012961;28;20410;-54
2021/11/18 04:27:36;;;;;;;8.83;7.93;;;8.90;99.90;;;;;;5013175;28;20399;-57
2021/11/18 04:30:05;;;;;;;7.80;7.03;;;8.90;99.90;;;;;;5013112;28;20430;-54
2021/11/18 04:32:31;;;;;;;8.70;7.67;;;8.90;99.90;;;;;;5012578;28;20457;-58
2021/11/18 04:34:56;;;;;;;13.20;9.43;;;8.80;99.90;;;;;;5012529;28;20411;-56
2021/11/18 04:37:22;;;;;;;11.10;9.40;;;8.70;99.90;;;;;;5012762;28;20162;-58
2021/11/18 04:39:49;;;;;;;11.33;10.10;;;8.70;99.90;;;;;;5014982;28;20651;-57
2021/11/18 04:42:16;;;;;;;9.70;8.67;;;8.60;99.90;;;;;;5016440;28;20453;-58
2021/11/18 04:44:42;;;;;;;9.43;8.40;;;8.80;99.90;;;;;;5016497;28;20430;-54
2021/11/18 04:47:12;;;;;;;9.10;8.30;;;8.90;99.90;;;;;;5016617;28;20441;-57
2021/11/18 04:49:40;;;;;;;8.97;8.03;;;8.90;99.90;;;;;;5016165;28;20178;-57
2021/11/18 04:52:07;;;;;;;11.47;10.00;;;8.80;99.90;;;;;;5015968;28;20877;-53
2021/11/18 04:54:33;;;;;;;10.73;9.70;;;8.70;99.90;;;;;;4998672;28;20418;-52
2021/11/18 04:56:59;;;;;;;9.87;8.90;;;8.70;99.90;;;;;;5016119;28;20398;-54
2021/11/18 04:59:25;;;;;;;10.57;9.47;;;8.80;99.90;;;;;;5016278;28;20402;-57
2021/11/18 05:01:51;;;;;;;14.63;10.53;;;8.80;99.90;;;;;;5016577;28;20433;-57
2021/11/18 05:04:17;;;;;;;10.33;9.33;;;8.70;99.90;;;;;;5016466;28;20742;-55
2021/11/18 05:06:44;;;;;;;11.07;9.87;;;8.70;99.90;;;;;;5015685;28;20254;-54
2021/11/18 05:09:10;;;;;;;10.40;9.40;;;8.60;99.90;;;;;;5015567;28;20412;-53
2021/11/18 05:11:37;;;;;;;10.23;8.43;;;8.70;99.90;;;;;;5015874;28;20922;-53
2021/11/18 05:14:03;;;;;;;11.23;10.13;;;8.70;99.90;;;;;;5015823;28;20465;-57
2021/11/18 05:16:30;;;;;;;10.80;9.70;;;8.80;99.90;;;;;;5015789;28;20412;-52
2021/11/18 05:18:56;;;;;;;10.87;9.17;;;8.70;99.90;;;;;;5015770;28;20394;-53
2021/11/18 05:21:25;;;;;;;10.50;9.40;;;8.80;99.90;;;;;;5015299;28;20519;-56
2021/11/18 05:23:51;;;;;;;12.20;10.50;;;8.90;99.90;;;;;;5015612;28;20160;-54
2021/11/18 05:26:19;;;;;;;12.60;10.93;;;8.90;99.90;;;;;;5015686;28;20493;-55
2021/11/18 05:28:45;;;;;;;13.50;10.40;;;8.80;99.90;;;;;;5015556;28;20451;-53
2021/11/18 05:31:13;;;;;;;9.97;8.93;;;8.80;99.90;;;;;;5015773;28;20433;-57
2021/11/18 05:33:40;;;;;;;12.10;10.50;;;8.80;99.90;;;;;;5015435;28;20454;-55
2021/11/18 05:36:06;;;;;;;11.37;9.73;;;8.90;99.90;;;;;;5015208;28;20406;-54
2021/11/18 05:38:32;;;;;;;11.40;10.30;;;8.90;99.90;;;;;;5015036;28;20543;-53
2021/11/18 05:40:58;;;;;;;16.27;10.87;;;8.90;99.90;;;;;;5015513;28;20178;-57
2021/11/18 05:43:25;;;;;;;10.93;9.53;;;8.90;99.90;;;;;;5015238;28;20415;-55
2021/11/18 05:45:52;;;;;;;14.30;12.43;;;9.00;99.90;;;;;;5015518;28;20176;-55
2021/11/18 05:48:19;;;;;;;12.10;10.20;;;9.10;99.90;;;;;;5015146;28;20503;-55
2021/11/18 05:50:50;;;;;;;12.13;10.00;;;9.10;99.90;;;;;;5014923;28;20468;-52
2021/11/18 05:53:20;;;;;;;13.23;11.07;;;9.10;99.90;;;;;;5015488;28;20464;-55
2021/11/18 05:55:47;;;;;;;12.50;11.20;;;9.10;99.90;;;;;;5015116;28;20381;-55
2021/11/18 05:58:13;;;;;;;14.73;11.17;;;9.10;99.90;;;;;;5014953;28;20414;-53
2021/11/18 06:00:39;;;;;;;12.53;11.23;;;9.00;99.90;;;;;;5015212;28;20876;-51
2021/11/18 06:03:05;;;;;;;13.93;11.13;;;9.00;99.90;;;;;;5015379;28;20503;-54
2021/11/18 06:05:31;;;;;;;13.20;11.53;;;9.00;99.90;;;;;;5005512;28;20179;-56
2021/11/18 06:07:57;;;;;;;14.73;11.27;;;9.00;99.90;;;;;;4998718;28;20421;-56
2021/11/18 06:10:25;;;;;;;16.30;14.47;;;9.00;99.90;;;;;;4996214;28;20946;-57
2021/11/18 06:12:51;;;;;;;14.67;10.80;;;9.10;99.90;;;;;;4994844;28;20209;-52
2021/11/18 06:15:17;;;;;;;13.07;11.67;;;9.20;99.90;;;;;;5013970;28;20413;-53
2021/11/18 06:17:43;;;;;;;13.83;11.50;;;9.10;99.90;;;;;;5014588;28;20174;-51
2021/11/18 06:20:12;;;;;;;14.23;10.37;;;9.10;99.90;;;;;;5014387;28;20402;-57
2021/11/18 06:22:38;;;;;;;12.50;10.80;;;9.00;99.90;;;;;;5013914;28;20637;-56
2021/11/18 06:25:05;;;;;;;13.27;10.60;;;9.10;99.90;;;;;;5014584;28;20406;-56
2021/11/18 06:27:31;;;;;;;11.33;10.13;;;9.10;99.90;;;;;;4975269;28;20818;-57
2021/11/18 06:29:57;;;;;;;14.60;10.63;;;9.10;99.90;;;;;;4974977;28;20912;-53
2021/11/18 06:32:22;;;;;;;12.07;10.83;;;9.00;99.90;;;;;;4975338;28;20455;-58
2021/11/18 06:34:50;;;;;;;11.27;9.80;;;9.10;99.90;;;;;;4975515;28;20251;-55
2021/11/18 06:37:16;;;;;;;12.43;10.33;;;9.10;99.90;;;;;;4974796;28;20220;-54
2021/11/18 06:39:42;;;;;;;12.50;11.20;;;9.00;99.90;;;;;;4975477;28;20417;-57
2021/11/18 06:42:10;;;;;;;17.50;13.20;;;9.00;99.90;;;;;;4975197;28;20424;-55
2021/11/18 06:44:41;;;;;;;13.90;11.57;;;9.10;99.90;;;;;;4975344;28;20173;-58
2021/11/18 06:47:07;;;;;;;16.60;13.23;;;9.20;99.90;;;;;;4975239;28;20439;-55
2021/11/18 06:49:34;;;;;;;14.80;13.00;;;9.30;99.90;;;;;;4975678;28;20787;-55
2021/11/18 06:52:00;;;;;;;21.30;17.00;;;9.30;99.90;;;;;;4992299;28;20835;-56
2021/11/18 06:54:26;;;;;;;15.57;13.03;;;9.30;99.90;;;;;;5014336;28;20528;-53
2021/11/18 06:56:51;;;;;;;16.17;14.10;;;9.20;99.90;;;;;;5014426;28;20543;-53
2021/11/18 06:59:17;;;;;;;14.17;12.20;;;9.30;99.90;;;;;;5014366;28;20249;-53
2021/11/18 07:01:43;;;;;;;13.20;10.93;;;9.20;99.90;;;;;;5013180;28;20731;-54
2021/11/18 07:04:12;;;;;;;17.50;13.10;;;9.30;99.90;;;;;;5014128;28;20264;-54
2021/11/18 07:06:38;;;;;;;12.33;10.10;;;9.30;99.90;;;;;;5013420;28;20248;-57
2021/11/18 07:09:05;;;;;;;14.80;11.87;;;9.30;99.90;;;;;;5013222;28;20413;-54
2021/11/18 07:11:31;;;;;;;17.60;13.63;;;9.30;99.90;;;;;;5013838;28;20764;-56
2021/11/18 07:13:57;;;;;;;14.53;11.30;;;9.30;99.90;;;;;;5013753;28;20516;-56
2021/11/18 07:16:23;;;;;;;14.83;13.20;;;9.40;99.90;;;;;;5013710;28;20178;-56
2021/11/18 07:18:50;;;;;;;15.30;12.23;;;9.40;99.90;;;;;;5013788;28;20616;-54
2021/11/18 07:21:18;;;;;;;16.03;12.53;;;9.40;99.90;;;;;;5013292;28;20461;-58
2021/11/18 07:23:44;;;;;;;15.13;11.00;;;9.40;99.90;;;;;;5013414;28;20394;-52
2021/11/18 07:26:11;;;;;;;14.70;11.83;;;9.40;99.90;;;;;;5013431;28;20411;-55
2021/11/18 07:28:39;;;;;;;17.23;13.60;;;9.30;99.90;;;;;;5013350;28;20443;-53
2021/11/18 07:31:05;;;;;;;16.73;12.73;;;9.40;99.90;;;;;;5013276;28;20406;-54
2021/11/18 07:33:32;;;;;;;14.70;12.30;;;9.40;99.90;;;;;;5013112;28;20456;-54
2021/11/18 07:35:58;;;;;;;14.73;11.40;;;9.40;99.90;;;;;;5012896;28;20408;-55
2021/11/18 07:38:27;;;;;;;20.50;13.83;;;9.50;99.90;;;;;;5012841;28;20502;-56
2021/11/18 07:40:53;;;;;;;16.53;12.47;;;9.40;99.90;;;;;;5013348;28;20757;-58
2021/11/18 07:43:22;;;;;;;17.10;13.97;;;9.40;99.90;;;;;;5013173;28;20861;-56
2021/11/18 07:45:50;;;;;;;14.03;12.40;;;9.40;99.90;;;;;;5013451;28;20413;-52
2021/11/18 07:48:16;;;;;;;18.33;12.10;;;9.40;99.90;;;;;;5013067;28;20419;-56
2021/11/18 07:50:44;;;;;;;15.70;11.80;;;9.50;99.90;;;;;;5012962;28;20419;-55
2021/11/18 07:53:10;;;;;;;20.00;12.00;;;9.50;99.90;;;;;;4994837;28;20466;-53
2021/11/18 07:55:36;;;;;;;17.27;12.23;;;9.50;99.90;;;;;;5038526;23;20411;-56
2021/11/18 07:58:01;;;;;;;14.87;12.00;;;9.50;99.90;;;;;;5016897;28;20972;-53
2021/11/18 08:00:28;;;;;;;16.50;12.20;;;9.60;99.90;;;;;;5015722;28;20246;-55
2021/11/18 08:02:53;;;;;;;16.53;10.90;;;9.60;99.90;;;;;;5015442;28;20713;-57
2021/11/18 08:05:19;;;;;;;17.13;12.30;;;9.60;99.90;;;;;;5015900;28;20413;-55
2021/11/18 08:07:45;;;;;;;16.90;12.37;;;9.50;99.90;;;;;;5014679;28;20192;-56
2021/11/18 08:10:12;;;;;;;14.30;11.33;;;9.40;99.90;;;;;;5014162;28;20421;-59
2021/11/18 08:12:39;;;;;;;18.00;13.20;;;9.20;99.90;;;;;;5013144;28;20492;-59
2021/11/18 08:15:08;;;;;;;17.97;12.50;;;9.30;99.90;;;;;;5016485;28;20414;-60
2021/11/18 08:17:34;;;;;;;18.10;11.57;;;9.30;99.90;;;;;;5018809;28;20438;-52
2021/11/18 08:20:00;;;;;;;16.63;12.37;;;9.40;99.90;;;;;;5018418;28;20974;-59
2021/11/18 08:22:26;;;;;;;15.80;12.07;;;9.40;99.90;;;;;;5017597;28;20200;-59
2021/11/18 08:24:53;;;;;;;16.00;11.60;;;9.50;99.90;;;;;;5017601;28;20203;-58
2021/11/18 08:27:18;;;;;;;19.23;13.03;;;9.50;99.90;;;;;;5032489;28;20441;-57
2021/11/18 08:29:47;;;;;;;15.70;12.17;;;9.70;99.90;;;;;;5039374;28;20753;-56
2021/11/18 08:32:14;;;;;;;17.67;12.73;;;9.80;99.90;;;;;;5041475;28;20214;-54
2021/11/18 08:34:40;;;;;;;16.77;12.37;;;9.90;99.90;;;;;;5040906;28;20846;-53
2021/11/18 08:37:06;;;;;;;16.03;12.17;;;10.00;99.90;;;;;;5039160;28;20465;-54
2021/11/18 08:39:33;;;;;;;18.23;12.27;;;10.00;99.90;;;;;;5038526;28;20609;-59
2021/11/18 08:42:03;;;;;;;21.47;14.30;;;9.90;99.90;;;;;;5038538;28;20417;-54
2021/11/18 08:44:31;;;;;;;18.20;13.30;;;9.80;99.90;;;;;;5039063;28;20409;-55
2021/11/18 08:46:57;;;;;;;22.73;14.63;;;9.80;99.90;;;;;;5039042;28;20814;-55
2021/11/18 08:49:24;;;;;;;22.80;14.23;;;9.70;99.90;;;;;;5039193;28;20826;-55
2021/11/18 08:51:50;;;;;;;21.70;14.93;;;9.70;99.90;;;;;;5029803;28;20769;-55
2021/11/18 08:54:20;;;;;;;26.80;16.10;;;9.60;99.90;;;;;;4999369;28;20458;-57
2021/11/18 08:56:53;;;;;;;29.73;17.50;;;9.70;99.90;;;;;;5026970;28;20460;-57
2021/11/18 08:59:21;;;;;;;24.30;14.80;;;9.60;99.90;;;;;;5036432;28;20895;-59
2021/11/18 09:01:53;;;;;;;24.97;14.90;;;9.60;99.90;;;;;;5036788;28;20405;-58
2021/11/18 09:04:20;;;;;;;21.50;14.03;;;9.80;99.90;;;;;;5036552;28;20411;-59
2021/11/18 09:06:47;;;;;;;21.37;15.80;;;10.00;99.90;;;;;;5036566;28;20433;-55
2021/11/18 09:09:14;;;;;;;24.83;14.83;;;10.10;99.90;;;;;;5036603;28;20780;-58
2021/11/18 09:11:42;;;;;;;21.60;14.47;;;10.20;99.90;;;;;;5036024;28;20441;-55
2021/11/18 09:14:10;;;;;;;24.10;14.53;;;10.30;99.90;;;;;;5036447;28;20445;-59
2021/11/18 09:16:37;;;;;;;25.43;15.80;;;10.50;99.90;;;;;;5036461;28;20483;-60
2021/11/18 09:19:05;;;;;;;18.60;13.00;;;10.50;99.90;;;;;;5035845;28;20391;-53
2021/11/18 09:21:32;;;;;;;19.53;13.60;;;10.50;99.90;;;;;;5035920;28;20407;-58
2021/11/18 09:24:19;;;;;;;20.53;14.70;;;10.60;99.90;;;;;;5036226;28;20433;-59
2021/11/18 09:26:48;;;;;;;19.97;12.73;;;10.50;99.90;;;;;;5035448;28;21001;-59
2021/11/18 09:29:14;;;;;;;21.83;14.70;;;10.50;99.90;;;;;;5035873;28;20403;-55
2021/11/18 09:31:42;;;;;;;18.27;13.10;;;10.40;99.90;;;;;;5035244;28;20935;-57
2021/11/18 09:34:08;;;;;;;19.37;13.30;;;10.50;99.90;;;;;;5035479;28;20187;-59
2021/11/18 09:36:34;;;;;;;21.40;14.90;;;10.70;99.90;;;;;;5035044;28;20501;-59
2021/11/18 09:39:00;;;;;;;18.03;13.40;;;10.60;99.90;;;;;;5035288;28;20172;-59
2021/11/18 09:41:26;;;;;;;17.20;13.17;;;10.60;99.90;;;;;;5034813;28;20401;-58
2021/11/18 09:44:10;;;;;;;19.60;12.20;;;10.60;99.90;;;;;;5035220;28;20413;-58
2021/11/18 09:47:12;;;;;;;19.20;14.00;;;10.60;99.90;;;;;;5035446;28;20187;-59
2021/11/18 09:49:58;;;;;;;24.53;14.53;;;10.60;99.90;;;;;;5035288;28;20442;-58
2021/11/18 09:52:38;;;;;;;19.23;12.77;;;10.40;99.90;;;;;;5021263;28;20451;-59
2021/11/18 09:55:27;;;;;;;20.17;12.70;;;10.30;99.90;;;;;;5015569;28;20380;-58
2021/11/18 09:58:36;;;;;;;18.67;13.20;;;10.30;99.90;;;;;;5034689;28;21026;-56
2021/11/18 10:01:36;;;;;;;22.07;15.03;;;10.50;99.90;;;;;;5035408;28;20363;-59
2021/11/18 10:04:11;;;;;;;21.53;13.63;;;10.80;99.90;;;;;;5035585;28;20409;-58
2021/11/18 10:06:40;;;;;;;18.87;13.50;;;10.70;99.90;;;;;;5034772;28;20424;-58
2021/11/18 10:09:18;;;;;;;24.40;15.47;;;10.60;99.90;;;;;;5035116;28;20910;-56
2021/11/18 10:12:05;;;;;;;20.00;15.17;;;10.70;99.90;;;;;;5014072;28;20409;-60
2021/11/18 10:14:39;;;;;;;18.20;12.87;;;10.70;99.90;;;;;;4995978;28;20390;-57
2021/11/18 10:17:16;;;;;;;20.23;14.33;;;10.80;99.90;;;;;;4996488;28;20430;-59
2021/11/18 10:19:55;;;;;;;18.30;11.93;;;10.90;99.90;;;;;;4995730;28;20394;-55
2021/11/18 10:22:22;;;;;;;18.90;12.63;;;10.90;99.90;;;;;;4995339;28;20392;-56
2021/11/18 10:24:51;;;;;;;19.10;12.87;;;11.10;99.90;;;;;;4995567;28;20400;-54
2021/11/18 10:27:20;;;;;;;18.20;13.33;;;11.30;99.90;;;;;;5024450;28;20481;-58
2021/11/18 10:30:04;;;;;;;19.27;14.10;;;11.40;99.90;;;;;;5034533;28;20402;-59
2021/11/18 10:32:42;;;;;;;16.33;13.40;;;11.40;99.90;;;;;;5034450;28;20442;-58
2021/11/18 10:35:13;;;;;;;20.10;15.50;;;11.60;99.90;;;;;;5034447;28;20381;-58
2021/11/18 10:37:44;;;;;;;18.57;12.70;;;11.60;99.90;;;;;;5033654;28;20435;-58
2021/11/18 10:40:18;;;;;;;16.80;13.10;;;11.70;99.90;;;;;;5035019;28;20375;-59
2021/11/18 10:43:15;;;;;;;18.83;13.60;;;12.00;99.90;;;;;;5034045;28;20412;-54
2021/11/18 10:46:27;;;;;;;16.90;12.50;;;12.30;99.90;;;;;;5034653;28;20458;-56
2021/11/18 10:49:00;;;;;;;14.60;11.83;;;12.30;99.90;;;;;;5024023;28;20422;-58
2021/11/18 10:51:55;;;;;;;16.03;11.73;;;12.40;99.90;;;;;;5013766;28;20433;-59
2021/11/18 10:54:46;;;;;;;19.33;12.73;;;12.50;99.90;;;;;;5014249;28;20451;-58
2021/11/18 10:57:16;;;;;;;15.57;12.30;;;12.50;99.90;;;;;;5027402;28;20454;-60
2021/11/18 10:59:46;;;;;;;17.77;12.03;;;12.40;99.90;;;;;;5034064;28;20397;-60
2021/11/18 11:02:29;;;;;;;15.33;12.93;;;12.50;99.90;;;;;;5034258;28;20448;-58
2021/11/18 11:04:58;;;;;;;16.07;11.23;;;12.70;99.90;;;;;;5034179;28;20408;-58
2021/11/18 11:07:34;;;;;;;12.47;10.30;;;12.50;99.90;;;;;;5030203;28;20864;-56
2021/11/18 11:09:59;;;;;;;17.77;13.70;;;12.60;99.90;;;;;;5014180;28;20741;-56
2021/11/18 11:12:32;;;;;;;16.50;12.73;;;12.80;99.90;;;;;;5013627;28;20444;-59
2021/11/18 11:15:12;;;;;;;15.07;10.93;;;12.60;99.90;;;;;;5013934;28;20636;-58
2021/11/18 11:17:56;;;;;;;13.90;11.03;;;12.80;99.90;;;;;;5013887;28;20416;-58
2021/11/18 11:20:31;;;;;;;16.23;12.77;;;13.00;99.90;;;;;;4996198;28;20481;-59
2021/11/18 11:23:15;;;;;;;13.57;11.47;;;12.90;99.90;;;;;;5013349;28;20403;-54
2021/11/18 11:26:00;;;;;;;13.37;11.23;;;12.80;99.90;;;;;;5015666;28;20473;-58
2021/11/18 11:28:47;;;;;;;13.17;11.33;;;12.70;99.90;;;;;;5033388;28;20390;-59
2021/11/18 11:31:29;;;;;;;15.73;10.93;;;12.70;99.90;;;;;;5033813;28;20397;-60
2021/11/18 11:34:13;;;;;;;12.73;11.33;;;12.50;99.90;;;;;;5033300;28;20435;-58
2021/11/18 11:36:44;;;;;;;13.10;9.93;;;12.70;99.90;;;;;;5033221;28;20488;-58
2021/11/18 11:39:49;;;;;;;12.90;10.30;;;12.50;99.90;;;;;;5015712;28;20403;-59
2021/11/18 11:42:52;;;;;;;17.97;13.10;;;12.40;99.90;;;;;;5024162;28;20414;-60
2021/11/18 11:45:29;;;;;;;18.83;13.27;;;12.20;99.90;;;;;;5019029;28;20405;-58
2021/11/18 11:48:04;;;;;;;18.07;13.47;;;11.90;99.90;;;;;;5013334;28;20375;-60
2021/11/18 11:50:51;;;;;;;18.60;15.00;;;11.60;99.90;;;;;;5013929;28;20390;-56
2021/11/18 11:53:56;;;;;;;18.53;12.80;;;11.30;99.90;;;;;;5014064;28;20450;-59
2021/11/18 11:56:32;;;;;;;15.80;11.90;;;11.40;99.90;;;;;;5002850;28;20456;-56
2021/11/18 11:59:18;;;;;;;18.40;14.23;;;11.40;99.90;;;;;;5033238;28;20728;-58
2021/11/18 12:02:08;;;;;;;17.27;12.57;;;11.30;99.90;;;;;;5034510;28;20383;-56
2021/11/18 12:04:52;;;;;;;21.27;15.00;;;11.30;99.90;;;;;;5025630;28;20458;-59
2021/11/18 12:07:26;;;;;;;18.17;13.40;;;11.00;99.90;;;;;;5014184;28;20498;-57
2021/11/18 12:10:09;;;;;;;19.87;14.70;;;10.60;99.90;;;;;;5012836;28;20405;-57
2021/11/18 12:12:43;;;;;;;16.33;13.30;;;10.40;99.90;;;;;;5013011;28;20526;-58
2021/11/18 12:15:20;;;;;;;17.33;14.13;;;10.50;99.90;;;;;;5012284;28;20924;-59
2021/11/18 12:17:53;;;;;;;20.40;14.53;;;10.60;99.90;;;;;;5013461;28;20429;-55
2021/11/18 12:20:26;;;;;;;17.43;12.80;;;10.70;99.90;;;;;;5013481;28;20390;-60
2021/11/18 12:22:57;;;;;;;18.93;14.10;;;10.80;99.90;;;;;;5011614;28;20448;-60
2021/11/18 12:25:32;;;;;;;16.13;11.90;;;10.90;99.90;;;;;;5013431;28;20777;-61
2021/11/18 12:28:15;;;;;;;17.73;12.40;;;11.20;99.90;;;;;;4993403;28;20410;-57
2021/11/18 12:30:43;;;;;;;12.07;10.63;;;11.30;99.90;;;;;;4993901;28;20749;-60
2021/11/18 12:33:11;;;;;;;11.50;10.03;;;11.30;99.90;;;;;;4993717;28;20545;-61
2021/11/18 12:36:16;;;;;;;12.10;10.80;;;11.40;99.90;;;;;;4995055;28;20779;-60
2021/11/18 12:39:15;;;;;;;12.50;9.90;;;11.40;99.90;;;;;;5013225;28;20474;-58
2021/11/18 12:41:42;;;;;;;15.40;11.87;;;11.60;99.90;;;;;;4995376;28;20922;-60
2021/11/18 12:44:41;;;;;;;15.33;12.17;;;11.70;99.90;;;;;;5013322;28;20409;-59
2021/11/18 12:47:35;;;;;;;14.70;11.27;;;11.70;99.90;;;;;;5013167;28;20489;-57
2021/11/18 12:50:14;;;;;;;11.07;9.93;;;11.80;99.90;;;;;;4982373;28;20440;-59
2021/11/18 12:53:11;;;;;;;12.67;9.90;;;11.70;99.90;;;;;;5012560;28;20442;-58
2021/11/18 12:56:03;;;;;;;11.17;9.23;;;11.70;99.90;;;;;;5014047;28;20407;-59
2021/11/18 12:58:59;;;;;;;8.57;7.57;;;11.80;99.90;;;;;;5032360;28;20413;-58
2021/11/18 13:01:25;;;;;;;9.47;8.57;;;11.60;99.90;;;;;;5029116;28;20410;-59